Time;durP1;ratioP1;P1;durP2;ratioP2;P2;SDS_P1;SDS_P2;PMS_P1;PMS_P2;Temp;Humidity;BMP_temperature;BMP_pressure;BME280_temperature;BME280_humidity;BME280_pressure;Samples;Min_cycle;Max_cycle;Signal;HPM_P1;HPM_P2
2021/04/30 00:00:54;;;;;;;7.83;5.70;;;;;;;;;;5039460;28;20239;-79
2021/04/30 00:03:21;;;;;;;8.93;6.10;;;;;;;;;;5032792;28;20238;-81
2021/04/30 00:05:49;;;;;;;6.90;5.90;;;;;;;;;;5034962;28;20227;-82
2021/04/30 00:08:16;;;;;;;7.90;6.03;;;;;;;;;;5046761;28;20238;-80
2021/04/30 00:10:44;;;;;;;7.50;6.67;;;;;;;;;;5050584;28;20239;-80
2021/04/30 00:13:12;;;;;;;6.70;6.07;;;;;;;;;;5028870;28;20227;-80
2021/04/30 00:15:40;;;;;;;7.20;5.83;;;;;;;;;;5041042;28;20223;-82
2021/04/30 00:18:08;;;;;;;7.33;5.50;;;;;;;;;;5026234;28;20227;-82
2021/04/30 00:20:38;;;;;;;6.40;5.60;;;;;;;;;;5037682;28;20699;-79
2021/04/30 00:23:11;;;;;;;7.63;5.00;;;;;;;;;;5039905;28;20230;-83
2021/04/30 00:25:39;;;;;;;4.37;3.50;;;;;;;;;;5050126;28;20224;-79
2021/04/30 00:28:13;;;;;;;4.43;3.93;;;;;;;;;;5031271;28;20591;-79
2021/04/30 00:30:42;;;;;;;4.93;3.00;;;;;;;;;;5046411;28;20220;-78
2021/04/30 00:33:10;;;;;;;5.70;3.20;;;;;;;;;;5038793;28;20226;-79
2021/04/30 00:35:38;;;;;;;5.07;3.20;;;;;;;;;;5031875;28;20228;-79
2021/04/30 00:38:06;;;;;;;4.37;3.33;;;;;;;;;;5035292;28;20228;-81
2021/04/30 00:40:34;;;;;;;3.83;3.43;;;;;;;;;;5034408;28;20224;-78
2021/04/30 00:43:04;;;;;;;3.93;2.87;;;;;;;;;;5036079;28;20238;-79
2021/04/30 00:45:32;;;;;;;5.60;3.50;;;;;;;;;;5031604;28;20226;-82
2021/04/30 00:48:00;;;;;;;4.80;3.73;;;;;;;;;;5043563;28;20237;-83
2021/04/30 00:50:29;;;;;;;5.47;4.07;;;;;;;;;;5042493;28;20223;-78
2021/04/30 00:52:56;;;;;;;5.93;4.03;;;;;;;;;;5047162;28;20236;-79
2021/04/30 00:55:24;;;;;;;5.67;4.23;;;;;;;;;;5044327;28;20231;-80
2021/04/30 00:57:55;;;;;;;5.37;4.30;;;;;;;;;;5049006;28;20626;-79
2021/04/30 01:00:23;;;;;;;4.40;4.00;;;;;;;;;;5042592;28;20227;-80
2021/04/30 01:02:51;;;;;;;5.90;4.60;;;;;;;;;;5054420;28;20239;-79
2021/04/30 01:05:19;;;;;;;6.40;4.07;;;;;;;;;;5030939;28;20236;-83
2021/04/30 01:07:47;;;;;;;4.77;4.37;;;;;;;;;;5046286;28;20216;-79
2021/04/30 01:10:15;;;;;;;5.13;3.90;;;;;;;;;;5046875;28;20233;-79
2021/04/30 01:12:43;;;;;;;5.47;4.27;;;;;;;;;;5046019;28;20223;-79
2021/04/30 01:15:13;;;;;;;5.00;4.20;;;;;;;;;;5035937;28;20223;-78
2021/04/30 01:17:40;;;;;;;4.70;4.23;;;;;;;;;;5021962;28;20231;-79
2021/04/30 01:20:10;;;;;;;5.40;4.60;;;;;;;;;;5044855;28;20267;-78
2021/04/30 01:22:39;;;;;;;5.47;4.70;;;;;;;;;;5018369;28;20235;-78
2021/04/30 01:25:09;;;;;;;5.23;4.40;;;;;;;;;;5046820;28;20234;-81
2021/04/30 01:27:37;;;;;;;4.83;4.00;;;;;;;;;;5049977;28;20223;-79
2021/04/30 01:30:07;;;;;;;7.47;4.10;;;;;;;;;;5018001;28;20228;-78
2021/04/30 01:32:35;;;;;;;5.63;4.50;;;;;;;;;;5040645;28;20231;-80
2021/04/30 01:35:03;;;;;;;7.00;4.83;;;;;;;;;;5035071;28;20227;-79
2021/04/30 01:37:31;;;;;;;4.97;4.57;;;;;;;;;;5039866;28;20216;-79
2021/04/30 01:39:59;;;;;;;6.90;4.63;;;;;;;;;;5049506;28;20257;-78
2021/04/30 01:42:28;;;;;;;6.17;4.33;;;;;;;;;;5040323;28;20238;-79
2021/04/30 01:44:55;;;;;;;5.03;4.53;;;;;;;;;;5048240;28;20223;-77
2021/04/30 01:47:23;;;;;;;5.63;4.60;;;;;;;;;;5040398;28;20231;-81
2021/04/30 01:49:51;;;;;;;4.93;4.50;;;;;;;;;;5043907;28;22483;-78
2021/04/30 01:52:18;;;;;;;5.73;4.50;;;;;;;;;;5027510;28;20231;-79
2021/04/30 01:54:49;;;;;;;5.07;4.43;;;;;;;;;;5041502;28;20222;-78
2021/04/30 01:57:17;;;;;;;5.73;4.47;;;;;;;;;;5034389;28;20234;-78
2021/04/30 01:59:45;;;;;;;7.70;4.67;;;;;;;;;;5042334;28;20228;-78
2021/04/30 02:02:12;;;;;;;4.67;4.27;;;;;;;;;;5035144;28;20719;-80
2021/04/30 02:04:40;;;;;;;6.33;4.53;;;;;;;;;;5037421;28;20235;-81
2021/04/30 02:07:08;;;;;;;5.83;4.53;;;;;;;;;;5052776;28;20733;-82
2021/04/30 02:09:36;;;;;;;5.83;4.33;;;;;;;;;;5040842;28;20238;-79
2021/04/30 02:12:04;;;;;;;6.47;3.97;;;;;;;;;;5038161;28;20223;-80
2021/04/30 02:14:33;;;;;;;6.50;4.47;;;;;;;;;;5015749;28;20232;-78
2021/04/30 02:17:01;;;;;;;7.13;4.77;;;;;;;;;;5063757;28;20222;-82
2021/04/30 02:19:32;;;;;;;8.77;5.07;;;;;;;;;;5064795;28;20212;-82
2021/04/30 02:22:00;;;;;;;7.67;4.63;;;;;;;;;;5042256;28;20750;-78
2021/04/30 02:24:33;;;;;;;5.47;4.60;;;;;;;;;;5040564;28;20219;-78
2021/04/30 02:27:01;;;;;;;7.03;4.60;;;;;;;;;;5032802;28;20236;-79
2021/04/30 02:29:31;;;;;;;7.63;4.50;;;;;;;;;;5024224;28;20235;-77
2021/04/30 02:32:00;;;;;;;5.90;4.53;;;;;;;;;;5033989;28;20230;-80
2021/04/30 02:34:28;;;;;;;7.83;4.93;;;;;;;;;;5052127;28;20652;-78
2021/04/30 02:36:56;;;;;;;5.70;4.80;;;;;;;;;;5047214;28;20234;-79
2021/04/30 02:39:24;;;;;;;6.40;4.80;;;;;;;;;;5042953;28;20235;-78
2021/04/30 02:41:51;;;;;;;5.73;4.90;;;;;;;;;;5044955;28;20242;-78
2021/04/30 02:44:19;;;;;;;4.60;4.20;;;;;;;;;;5035008;28;20224;-78
2021/04/30 02:46:47;;;;;;;5.70;5.10;;;;;;;;;;5044083;28;20243;-82
2021/04/30 02:49:17;;;;;;;5.73;5.10;;;;;;;;;;5042122;28;20223;-78
2021/04/30 02:51:44;;;;;;;9.20;6.00;;;;;;;;;;5044417;28;20228;-78
2021/04/30 02:54:12;;;;;;;5.20;4.50;;;;;;;;;;5048077;28;20231;-79
2021/04/30 02:56:39;;;;;;;5.60;4.70;;;;;;;;;;5068035;28;20211;-82
2021/04/30 02:59:07;;;;;;;6.03;4.57;;;;;;;;;;5068565;28;20720;-83
2021/04/30 03:01:35;;;;;;;7.23;4.67;;;;;;;;;;5060017;28;20340;-79
2021/04/30 03:04:03;;;;;;;5.70;5.13;;;;;;;;;;5047495;28;20223;-79
2021/04/30 03:06:31;;;;;;;8.23;5.37;;;;;;;;;;5025174;28;20223;-79
2021/04/30 03:08:59;;;;;;;7.17;4.80;;;;;;;;;;5041798;28;20220;-79
2021/04/30 03:11:27;;;;;;;7.20;5.40;;;;;;;;;;5037653;28;20235;-86
2021/04/30 03:13:54;;;;;;;6.00;5.27;;;;;;;;;;5040192;28;20234;-82
2021/04/30 03:16:25;;;;;;;8.43;5.00;;;;;;;;;;5045726;28;20235;-79
2021/04/30 03:18:53;;;;;;;6.53;5.40;;;;;;;;;;5049088;28;20223;-79
2021/04/30 03:21:20;;;;;;;6.87;5.67;;;;;;;;;;5020462;28;20585;-78
2021/04/30 03:23:49;;;;;;;6.17;5.33;;;;;;;;;;5044944;28;20232;-83
2021/04/30 03:26:17;;;;;;;7.53;5.47;;;;;;;;;;5050793;28;20228;-78
2021/04/30 03:28:44;;;;;;;7.07;5.67;;;;;;;;;;5049069;28;20227;-79
2021/04/30 03:31:12;;;;;;;7.20;5.57;;;;;;;;;;5047634;28;20230;-78
2021/04/30 03:33:40;;;;;;;6.00;5.23;;;;;;;;;;5070121;28;20247;-82
2021/04/30 03:36:07;;;;;;;5.50;4.90;;;;;;;;;;5056857;28;20234;-78
2021/04/30 03:38:35;;;;;;;6.33;5.53;;;;;;;;;;5073129;28;20210;-81
2021/04/30 03:41:04;;;;;;;7.77;5.77;;;;;;;;;;5062696;28;20228;-79
2021/04/30 03:43:53;;;;;;;8.00;5.63;;;;;;;;;;5138227;27;20532;-81
2021/04/30 03:46:21;;;;;;;6.10;5.50;;;;;;;;;;5121090;28;20212;-80
2021/04/30 03:48:49;;;;;;;7.10;5.77;;;;;;;;;;5110804;27;20256;-81
2021/04/30 03:51:16;;;;;;;7.73;6.30;;;;;;;;;;5082608;28;20229;-79
2021/04/30 03:53:44;;;;;;;7.43;6.47;;;;;;;;;;5095223;27;20399;-78
2021/04/30 03:56:11;;;;;;;7.67;6.20;;;;;;;;;;5110291;27;20725;-79
2021/04/30 03:58:39;;;;;;;7.73;6.20;;;;;;;;;;5080918;28;20226;-81
2021/04/30 04:01:08;;;;;;;7.90;5.60;;;;;;;;;;5094133;28;20248;-78
2021/04/30 04:03:36;;;;;;;12.07;5.93;;;;;;;;;;5091808;28;20248;-79
2021/04/30 04:06:04;;;;;;;10.13;6.30;;;;;;;;;;5092790;28;20229;-78
2021/04/30 04:08:32;;;;;;;7.13;5.87;;;;;;;;;;5096339;27;20225;-82
2021/04/30 04:10:59;;;;;;;7.70;6.13;;;;;;;;;;5093130;28;20241;-85
2021/04/30 04:13:27;;;;;;;8.27;6.20;;;;;;;;;;5101228;27;20217;-82
2021/04/30 04:15:59;;;;;;;9.43;6.30;;;;;;;;;;5107837;27;20575;-81
2021/04/30 04:18:27;;;;;;;9.03;7.00;;;;;;;;;;5097715;27;20244;-80
2021/04/30 04:20:55;;;;;;;7.50;6.17;;;;;;;;;;5106210;27;20225;-82
2021/04/30 04:23:23;;;;;;;9.17;6.90;;;;;;;;;;5107095;27;20229;-80
2021/04/30 04:25:50;;;;;;;10.13;6.13;;;;;;;;;;5106221;27;20218;-80
2021/04/30 04:28:18;;;;;;;10.23;7.80;;;;;;;;;;5095008;27;20230;-80
2021/04/30 04:30:46;;;;;;;7.03;6.33;;;;;;;;;;5089520;27;20711;-79
2021/04/30 04:33:14;;;;;;;10.00;7.50;;;;;;;;;;5083417;27;20219;-79
2021/04/30 04:35:42;;;;;;;7.43;6.73;;;;;;;;;;5093823;27;20233;-79
2021/04/30 04:38:10;;;;;;;9.73;7.40;;;;;;;;;;5077783;28;20225;-80
2021/04/30 04:40:38;;;;;;;11.97;6.90;;;;;;;;;;5090433;27;20727;-82
2021/04/30 04:43:06;;;;;;;8.70;6.73;;;;;;;;;;5098985;27;20229;-80
2021/04/30 04:45:33;;;;;;;10.70;7.73;;;;;;;;;;5108149;27;20723;-80
2021/04/30 04:48:01;;;;;;;8.87;7.17;;;;;;;;;;5102012;28;20703;-79
2021/04/30 04:50:30;;;;;;;9.73;7.70;;;;;;;;;;5082712;28;20218;-80
2021/04/30 04:53:18;;;;;;;9.07;7.47;;;;;;;;;;5098925;28;20996;-80
2021/04/30 04:55:46;;;;;;;10.00;8.50;;;;;;;;;;5066808;28;20221;-79
2021/04/30 04:58:13;;;;;;;10.83;7.63;;;;;;;;;;5097656;28;20226;-79
2021/04/30 05:00:41;;;;;;;9.63;7.60;;;;;;;;;;5086269;28;20742;-78
2021/04/30 05:03:09;;;;;;;9.30;7.47;;;;;;;;;;5083895;28;20234;-79
2021/04/30 05:05:37;;;;;;;8.10;6.73;;;;;;;;;;5072525;28;20226;-82
2021/04/30 05:08:04;;;;;;;8.67;7.27;;;;;;;;;;5083926;28;21129;-83
2021/04/30 05:10:33;;;;;;;10.53;7.47;;;;;;;;;;5085054;27;20206;-81
2021/04/30 05:13:01;;;;;;;8.17;7.37;;;;;;;;;;5091956;28;20268;-82
2021/04/30 05:15:29;;;;;;;8.43;7.33;;;;;;;;;;5102404;28;20236;-84
2021/04/30 05:18:03;;;;;;;7.83;7.03;;;;;;;;;;5073650;28;20241;-80
2021/04/30 05:20:31;;;;;;;8.77;7.87;;;;;;;;;;5060482;28;20222;-83
2021/04/30 05:23:00;;;;;;;8.77;7.67;;;;;;;;;;5073921;28;20234;-81
2021/04/30 05:25:27;;;;;;;7.27;6.57;;;;;;;;;;5075932;28;20218;-79
2021/04/30 05:27:56;;;;;;;8.77;7.27;;;;;;;;;;5078250;28;20226;-80
2021/04/30 05:30:24;;;;;;;9.90;7.73;;;;;;;;;;5080027;28;20231;-79
2021/04/30 05:32:51;;;;;;;8.20;7.40;;;;;;;;;;5078763;27;20252;-81
2021/04/30 05:35:19;;;;;;;8.47;7.57;;;;;;;;;;5086961;28;20226;-82
2021/04/30 05:37:46;;;;;;;11.57;7.30;;;;;;;;;;5083755;27;20254;-81
2021/04/30 05:40:14;;;;;;;8.60;7.70;;;;;;;;;;5080689;27;20249;-80
2021/04/30 05:42:42;;;;;;;7.47;6.73;;;;;;;;;;5087246;27;20589;-79
2021/04/30 05:45:12;;;;;;;8.63;7.77;;;;;;;;;;5093108;27;20221;-80
2021/04/30 05:47:40;;;;;;;8.57;7.17;;;;;;;;;;5056412;27;20226;-80
2021/04/30 05:50:09;;;;;;;8.70;7.33;;;;;;;;;;5081906;27;20230;-81
2021/04/30 05:52:36;;;;;;;9.00;8.10;;;;;;;;;;5080741;28;20226;-82
2021/04/30 05:55:05;;;;;;;10.70;8.03;;;;;;;;;;5085542;28;20225;-79
2021/04/30 05:57:33;;;;;;;9.87;7.57;;;;;;;;;;5081131;28;20620;-80
2021/04/30 06:00:00;;;;;;;9.60;7.37;;;;;;;;;;5083290;27;20249;-79
2021/04/30 06:02:30;;;;;;;9.10;7.90;;;;;;;;;;5070356;28;20245;-79
2021/04/30 06:04:58;;;;;;;11.27;8.23;;;;;;;;;;5084274;28;20229;-82
2021/04/30 06:07:26;;;;;;;9.37;7.87;;;;;;;;;;5093240;28;20722;-79
2021/04/30 06:09:53;;;;;;;11.83;8.03;;;;;;;;;;5078515;27;20229;-80
2021/04/30 06:12:21;;;;;;;9.97;8.00;;;;;;;;;;5049679;28;20233;-80
2021/04/30 06:14:49;;;;;;;9.93;8.00;;;;;;;;;;5083486;28;20233;-77
2021/04/30 06:17:18;;;;;;;8.50;7.70;;;;;;;;;;5084608;27;20635;-80
2021/04/30 06:19:47;;;;;;;9.57;7.83;;;;;;;;;;5079823;27;20234;-80
2021/04/30 06:22:14;;;;;;;9.80;8.17;;;;;;;;;;5076902;28;20703;-79
2021/04/30 06:24:42;;;;;;;9.20;8.10;;;;;;;;;;5077656;28;20242;-79
2021/04/30 06:27:10;;;;;;;9.40;8.37;;;;;;;;;;5070874;28;20626;-81
2021/04/30 06:29:37;;;;;;;9.93;8.20;;;;;;;;;;5074286;28;20595;-79
2021/04/30 06:32:06;;;;;;;9.50;8.20;;;;;;;;;;5076138;28;20222;-79
2021/04/30 06:34:35;;;;;;;9.67;8.07;;;;;;;;;;5076846;27;20226;-80
2021/04/30 06:37:03;;;;;;;9.37;8.37;;;;;;;;;;5096271;28;20233;-82
2021/04/30 06:39:31;;;;;;;8.27;7.13;;;;;;;;;;5084371;27;20225;-80
2021/04/30 06:42:02;;;;;;;12.63;8.37;;;;;;;;;;5076179;28;20226;-80
2021/04/30 06:44:30;;;;;;;9.53;7.73;;;;;;;;;;5069851;28;20226;-81
2021/04/30 06:46:59;;;;;;;9.27;7.80;;;;;;;;;;5093510;27;20420;-79
2021/04/30 06:49:26;;;;;;;10.70;8.43;;;;;;;;;;5085548;28;20249;-78
2021/04/30 06:51:54;;;;;;;11.13;9.87;;;;;;;;;;5049610;28;20231;-78
2021/04/30 06:54:22;;;;;;;9.63;7.77;;;;;;;;;;5086217;27;20226;-77
2021/04/30 06:56:50;;;;;;;9.23;7.40;;;;;;;;;;5082921;28;20218;-77
2021/04/30 06:59:17;;;;;;;9.33;6.77;;;;;;;;;;5083356;27;20230;-78
2021/04/30 07:01:45;;;;;;;9.47;7.60;;;;;;;;;;5086155;27;20599;-78
2021/04/30 07:04:12;;;;;;;11.20;7.33;;;;;;;;;;5077356;28;20242;-79
2021/04/30 07:06:40;;;;;;;9.07;8.10;;;;;;;;;;5089087;28;20215;-77
2021/04/30 07:09:08;;;;;;;10.33;7.73;;;;;;;;;;5077206;28;20257;-80
2021/04/30 07:11:37;;;;;;;10.53;8.47;;;;;;;;;;5075090;27;20229;-78
2021/04/30 07:14:05;;;;;;;9.70;7.77;;;;;;;;;;5077183;28;20229;-78
2021/04/30 07:16:33;;;;;;;8.70;7.73;;;;;;;;;;5078121;27;20219;-78
2021/04/30 07:19:00;;;;;;;9.27;8.37;;;;;;;;;;5068349;28;20248;-76
2021/04/30 07:21:28;;;;;;;9.60;8.07;;;;;;;;;;5076129;28;20742;-82
2021/04/30 07:23:55;;;;;;;9.70;8.80;;;;;;;;;;5056532;28;20252;-82
2021/04/30 07:26:23;;;;;;;10.43;8.53;;;;;;;;;;5075761;27;20230;-78
2021/04/30 07:28:51;;;;;;;11.23;8.80;;;;;;;;;;5089107;28;20253;-79
2021/04/30 07:31:18;;;;;;;10.37;8.20;;;;;;;;;;5076309;28;20230;-77
2021/04/30 07:33:46;;;;;;;9.73;8.70;;;;;;;;;;5088136;28;20231;-78
2021/04/30 07:36:14;;;;;;;9.23;8.33;;;;;;;;;;5074199;28;20237;-77
2021/04/30 07:38:42;;;;;;;10.00;8.47;;;;;;;;;;5088622;28;20715;-79
2021/04/30 07:41:10;;;;;;;9.10;8.00;;;;;;;;;;5082343;28;20225;-78
2021/04/30 07:43:38;;;;;;;9.20;7.97;;;;;;;;;;5084011;28;20218;-82
2021/04/30 07:46:07;;;;;;;8.13;7.40;;;;;;;;;;5080066;28;20282;-77
2021/04/30 07:48:35;;;;;;;9.23;7.63;;;;;;;;;;5077741;28;20704;-77
2021/04/30 07:51:04;;;;;;;11.10;9.20;;;;;;;;;;5098158;28;20695;-79
2021/04/30 07:53:32;;;;;;;12.20;8.50;;;;;;;;;;5082256;28;20237;-79
2021/04/30 07:56:00;;;;;;;10.33;9.33;;;;;;;;;;5079401;28;20227;-79
2021/04/30 07:58:28;;;;;;;9.77;8.87;;;;;;;;;;5076709;28;20233;-77
2021/04/30 08:00:57;;;;;;;11.30;9.30;;;;;;;;;;5077075;28;20234;-78
2021/04/30 08:03:25;;;;;;;10.03;8.50;;;;;;;;;;5064687;28;20222;-79
2021/04/30 08:05:53;;;;;;;9.97;8.97;;;;;;;;;;5070454;28;20225;-80
2021/04/30 08:08:21;;;;;;;10.20;9.20;;;;;;;;;;5103388;28;20222;-85
2021/04/30 08:10:49;;;;;;;9.93;8.57;;;;;;;;;;5092738;28;20253;-80
2021/04/30 08:13:17;;;;;;;8.93;7.70;;;;;;;;;;5070338;28;20233;-78
2021/04/30 08:15:45;;;;;;;9.20;8.40;;;;;;;;;;5078561;28;20230;-78
2021/04/30 08:18:13;;;;;;;10.70;9.07;;;;;;;;;;5080312;28;20221;-78
2021/04/30 08:20:41;;;;;;;8.87;8.07;;;;;;;;;;5077618;28;20218;-78
2021/04/30 08:23:09;;;;;;;10.60;8.90;;;;;;;;;;5080931;28;20222;-80
2021/04/30 08:25:36;;;;;;;9.30;8.27;;;;;;;;;;5071740;28;20683;-78
2021/04/30 08:28:04;;;;;;;9.50;8.50;;;;;;;;;;5074451;28;20221;-78
2021/04/30 08:30:32;;;;;;;11.57;8.93;;;;;;;;;;5083839;28;20252;-78
2021/04/30 08:32:59;;;;;;;9.73;8.80;;;;;;;;;;5081601;28;20226;-78
2021/04/30 08:35:27;;;;;;;10.50;9.50;;;;;;;;;;5074056;28;20238;-78
2021/04/30 08:37:59;;;;;;;9.40;8.50;;;;;;;;;;5090113;28;20226;-81
2021/04/30 08:40:28;;;;;;;9.90;8.90;;;;;;;;;;5061383;28;20226;-79
2021/04/30 08:42:56;;;;;;;9.53;8.53;;;;;;;;;;5081608;28;20597;-79
2021/04/30 08:45:23;;;;;;;11.90;9.30;;;;;;;;;;5086872;28;20232;-78
2021/04/30 08:47:51;;;;;;;10.87;9.53;;;;;;;;;;5076575;28;20240;-80
2021/04/30 08:50:19;;;;;;;10.23;9.17;;;;;;;;;;5056485;28;20703;-79
2021/04/30 08:52:46;;;;;;;10.17;9.17;;;;;;;;;;5073064;27;20219;-77
2021/04/30 08:55:16;;;;;;;10.10;9.10;;;;;;;;;;5085210;27;20246;-78
2021/04/30 08:57:52;;;;;;;10.17;9.10;;;;;;;;;;5073361;27;20449;-78
2021/04/30 09:00:21;;;;;;;9.13;8.23;;;;;;;;;;5069667;27;20218;-81
2021/04/30 09:02:49;;;;;;;8.87;7.97;;;;;;;;;;5062515;27;20248;-79
2021/04/30 09:05:22;;;;;;;10.57;9.33;;;;;;;;;;5083859;28;20226;-79
2021/04/30 09:07:50;;;;;;;8.97;8.13;;;;;;;;;;5080667;28;20328;-80
2021/04/30 09:10:19;;;;;;;10.20;9.03;;;;;;;;;;5074874;27;20237;-79
2021/04/30 09:13:02;;;;;;;9.40;8.50;;;;;;;;;;5064866;27;20227;-80
2021/04/30 09:15:29;;;;;;;9.53;7.97;;;;;;;;;;5065679;27;20226;-79
2021/04/30 09:18:19;;;;;;;10.00;9.00;;;;;;;;;;5065710;28;20230;-79
2021/04/30 09:20:47;;;;;;;9.33;8.43;;;;;;;;;;5059413;28;20238;-81
2021/04/30 09:23:37;;;;;;;9.00;7.60;;;;;;;;;;5062617;27;20218;-80
2021/04/30 09:26:22;;;;;;;9.73;8.73;;;;;;;;;;5067211;28;20238;-80
2021/04/30 09:29:01;;;;;;;9.23;8.33;;;;;;;;;;5064292;27;20229;-80
2021/04/30 09:31:45;;;;;;;8.63;7.73;;;;;;;;;;5071457;28;20222;-78
2021/04/30 09:34:23;;;;;;;9.37;8.47;;;;;;;;;;5065360;28;20265;-78
2021/04/30 09:37:06;;;;;;;9.83;8.93;;;;;;;;;;5078224;27;20233;-80
2021/04/30 09:39:49;;;;;;;9.23;8.33;;;;;;;;;;5075706;28;20695;-78
2021/04/30 09:42:23;;;;;;;9.30;8.47;;;;;;;;;;5069157;28;20230;-78
2021/04/30 09:44:52;;;;;;;9.47;8.57;;;;;;;;;;5079011;27;20229;-79
2021/04/30 09:47:22;;;;;;;8.73;7.90;;;;;;;;;;5073870;28;20222;-78
2021/04/30 09:49:52;;;;;;;9.57;8.57;;;;;;;;;;5066617;28;20235;-78
2021/04/30 09:52:20;;;;;;;9.10;8.20;;;;;;;;;;5079309;27;20233;-78
2021/04/30 09:54:49;;;;;;;9.93;8.80;;;;;;;;;;5074315;27;20230;-79
2021/04/30 09:57:19;;;;;;;9.70;8.70;;;;;;;;;;5080295;27;20229;-77
2021/04/30 09:59:56;;;;;;;9.80;8.80;;;;;;;;;;5074631;27;20704;-77
2021/04/30 10:02:25;;;;;;;9.77;8.97;;;;;;;;;;5083033;28;20721;-78
2021/04/30 10:04:54;;;;;;;9.53;8.53;;;;;;;;;;5071429;27;20238;-77
2021/04/30 10:07:30;;;;;;;10.18;9.27;;;;;;;;;;5083979;27;20222;-77
2021/04/30 10:10:08;;;;;;;9.97;9.07;;;;;;;;;;5071377;28;20256;-77
2021/04/30 10:12:37;;;;;;;12.00;9.50;;;;;;;;;;5063747;27;20232;-77
2021/04/30 10:15:10;;;;;;;9.47;8.67;;;;;;;;;;5076469;28;20226;-78
2021/04/30 10:17:38;;;;;;;10.07;9.00;;;;;;;;;;5095397;28;20457;-78
2021/04/30 10:20:08;;;;;;;9.55;8.75;;;;;;;;;;5053487;28;21140;-78
2021/04/30 10:22:36;;;;;;;10.57;9.48;;;;;;;;;;5051973;28;20226;-78
2021/04/30 10:25:19;;;;;;;9.63;8.68;;;;;;;;;;5065255;28;21561;-78
2021/04/30 10:27:48;;;;;;;10.02;9.13;;;;;;;;;;5079254;28;20702;-78
2021/04/30 10:30:20;;;;;;;9.88;9.07;;;;;;;;;;5072879;28;20230;-78
2021/04/30 10:32:51;;;;;;;8.80;8.07;;;;;;;;;;5081451;28;20597;-79
2021/04/30 10:35:24;;;;;;;9.65;8.38;;;;;;;;;;5073776;28;20228;-78
2021/04/30 10:37:52;;;;;;;10.38;9.48;;;;;;;;;;5076762;27;20237;-77
2021/04/30 10:40:20;;;;;;;10.55;9.45;;;;;;;;;;5081221;27;20218;-77
2021/04/30 10:42:47;;;;;;;10.35;9.45;;;;;;;;;;5084764;27;20738;-76
2021/04/30 10:45:17;;;;;;;9.60;8.80;;;;;;;;;;5084008;28;20222;-77
2021/04/30 10:48:03;;;;;;;9.60;8.68;;;;;;;;;;5060330;28;20245;-77
2021/04/30 10:50:31;;;;;;;10.18;9.27;;;;;;;;;;5078367;27;20241;-77
2021/04/30 10:53:23;;;;;;;10.48;9.57;;;;;;;;;;5109110;27;20221;-78
2021/04/30 10:55:51;;;;;;;9.82;8.88;;;;;;;;;;5055599;28;20235;-79
2021/04/30 10:58:33;;;;;;;10.25;9.38;;;;;;;;;;5077341;28;20233;-77
2021/04/30 11:01:25;;;;;;;9.75;8.95;;;;;;;;;;5076026;28;20218;-79
2021/04/30 11:04:16;;;;;;;11.02;10.10;;;;;;;;;;5094871;27;20296;-81
2021/04/30 11:06:46;;;;;;;12.27;11.02;;;;;;;;;;5096151;27;20227;-77
2021/04/30 11:09:16;;;;;;;11.77;10.77;;;;;;;;;;5079304;27;20605;-76
2021/04/30 11:11:45;;;;;;;11.15;10.07;;;;;;;;;;5075828;27;20226;-79
2021/04/30 11:14:23;;;;;;;11.70;10.73;;;;;;;;;;5058497;28;20509;-76
2021/04/30 11:16:53;;;;;;;11.45;10.50;;;;;;;;;;5074337;27;20229;-76
2021/04/30 11:19:22;;;;;;;11.25;10.25;;;;;;;;;;5076007;27;20309;-80
2021/04/30 11:21:51;;;;;;;10.23;9.23;;;;;;;;;;5053956;27;20687;-81
2021/04/30 11:24:37;;;;;;;11.65;10.20;;;;;;;;;;5071210;27;20230;-76
2021/04/30 11:27:30;;;;;;;11.05;10.10;;;;;;;;;;5050260;28;20230;-76
2021/04/30 11:30:21;;;;;;;11.35;10.45;;;;;;;;;;5057281;28;20240;-81
2021/04/30 11:32:52;;;;;;;10.50;9.57;;;;;;;;;;5069377;28;20219;-78
2021/04/30 11:35:23;;;;;;;12.27;11.18;;;;;;;;;;5074912;28;20262;-78
2021/04/30 11:37:51;;;;;;;13.18;11.93;;;;;;;;;;5071274;27;20215;-77
2021/04/30 11:40:23;;;;;;;13.15;11.68;;;;;;;;;;5104791;27;20222;-76
2021/04/30 11:43:04;;;;;;;12.38;11.27;;;;;;;;;;5071875;27;20242;-76
2021/04/30 11:45:33;;;;;;;12.95;11.65;;;;;;;;;;5057279;28;20222;-79
2021/04/30 11:48:01;;;;;;;12.98;11.77;;;;;;;;;;5062184;28;20233;-76
2021/04/30 11:50:29;;;;;;;13.32;12.10;;;;;;;;;;5075786;27;20239;-77
2021/04/30 11:52:56;;;;;;;11.57;10.57;;;;;;;;;;5062088;28;20225;-77
2021/04/30 11:55:24;;;;;;;12.43;11.32;;;;;;;;;;5076850;28;20233;-80
2021/04/30 11:57:54;;;;;;;12.40;11.38;;;;;;;;;;5069136;28;20242;-76
2021/04/30 12:00:24;;;;;;;15.77;11.52;;;;;;;;;;5052478;28;20246;-75
2021/04/30 12:03:03;;;;;;;17.08;11.70;;;;;;;;;;5039678;28;20227;-76
2021/04/30 12:05:32;;;;;;;13.13;11.90;;;;;;;;;;5052769;28;20272;-81
2021/04/30 12:08:00;;;;;;;12.70;11.52;;;;;;;;;;5061010;28;20222;-77
2021/04/30 12:10:29;;;;;;;12.38;11.10;;;;;;;;;;5064230;28;20238;-77
2021/04/30 12:12:57;;;;;;;12.05;11.00;;;;;;;;;;5054850;28;20742;-77
2021/04/30 12:15:27;;;;;;;12.85;11.55;;;;;;;;;;5077444;27;20223;-75
2021/04/30 12:17:55;;;;;;;12.53;11.23;;;;;;;;;;5073254;28;20221;-78
2021/04/30 12:20:25;;;;;;;13.10;11.73;;;;;;;;;;5077876;27;20597;-77
2021/04/30 12:23:11;;;;;;;12.50;11.17;;;;;;;;;;5064656;28;20246;-78
2021/04/30 12:25:41;;;;;;;12.43;10.97;;;;;;;;;;5059336;28;20230;-85
2021/04/30 12:28:24;;;;;;;11.77;10.40;;;;;;;;;;5079620;28;20671;-77
2021/04/30 12:30:54;;;;;;;13.60;10.43;;;;;;;;;;5084987;28;20234;-78
2021/04/30 12:33:34;;;;;;;11.40;10.30;;;;;;;;;;5064237;28;20237;-80
2021/04/30 12:36:07;;;;;;;11.87;9.90;;;;;;;;;;5075943;28;20595;-78
2021/04/30 12:38:35;;;;;;;12.63;10.80;;;;;;;;;;5073609;27;20219;-77
2021/04/30 12:41:04;;;;;;;12.57;10.43;;;;;;;;;;5071450;27;20245;-81
2021/04/30 12:43:33;;;;;;;11.17;9.97;;;;;;;;;;5068965;27;20253;-77
2021/04/30 12:46:10;;;;;;;13.50;9.87;;;;;;;;;;5086023;27;20223;-76
2021/04/30 12:48:41;;;;;;;11.97;10.27;;;;;;;;;;5112030;27;20602;-82
2021/04/30 12:51:12;;;;;;;12.90;10.37;;;;;;;;;;5086112;27;20237;-78
2021/04/30 12:53:44;;;;;;;10.03;9.03;;;;;;;;;;5087616;27;20246;-80
2021/04/30 12:56:26;;;;;;;11.93;9.87;;;;;;;;;;5074383;27;20233;-77
2021/04/30 12:59:17;;;;;;;12.53;10.07;;;;;;;;;;5058712;28;20237;-81
2021/04/30 13:01:46;;;;;;;11.90;10.20;;;;;;;;;;5061118;27;20231;-77
2021/04/30 13:04:16;;;;;;;12.27;10.37;;;;;;;;;;5049939;28;20605;-80
2021/04/30 13:06:45;;;;;;;11.57;9.90;;;;;;;;;;5060109;27;20231;-83
2021/04/30 13:09:13;;;;;;;12.23;9.70;;;;;;;;;;5095003;27;20219;-76
2021/04/30 13:11:41;;;;;;;13.50;9.80;;;;;;;;;;5105437;27;20704;-77
2021/04/30 13:14:14;;;;;;;12.07;10.00;;;;;;;;;;5075244;28;20231;-80
2021/04/30 13:16:43;;;;;;;11.23;10.03;;;;;;;;;;5069794;28;20222;-77
2021/04/30 13:19:26;;;;;;;12.60;9.77;;;;;;;;;;5070797;28;20246;-82
2021/04/30 13:21:56;;;;;;;11.43;9.10;;;;;;;;;;5059902;27;20214;-82
2021/04/30 13:24:25;;;;;;;11.80;10.00;;;;;;;;;;5087159;28;20222;-76
2021/04/30 13:27:01;;;;;;;10.60;9.27;;;;;;;;;;5076009;27;20234;-83
2021/04/30 13:29:40;;;;;;;10.70;9.10;;;;;;;;;;5083965;27;20230;-85
2021/04/30 13:32:10;;;;;;;9.90;8.90;;;;;;;;;;5079661;27;20224;-76
2021/04/30 13:34:44;;;;;;;10.10;8.80;;;;;;;;;;5073501;27;20593;-78
2021/04/30 13:37:15;;;;;;;14.70;11.00;;;;;;;;;;5079003;27;20237;-77
2021/04/30 13:39:44;;;;;;;8.43;7.53;;;;;;;;;;5066728;27;20602;-83
2021/04/30 13:42:19;;;;;;;8.77;7.87;;;;;;;;;;5089088;27;20572;-77
2021/04/30 13:44:50;;;;;;;7.43;6.73;;;;;;;;;;5079327;27;20218;-85
2021/04/30 13:47:18;;;;;;;7.53;6.73;;;;;;;;;;5086022;27;20228;-77
2021/04/30 13:49:50;;;;;;;8.90;8.00;;;;;;;;;;5079583;27;20231;-77
2021/04/30 13:52:20;;;;;;;8.33;6.77;;;;;;;;;;5075640;27;20218;-79
2021/04/30 13:54:48;;;;;;;7.83;7.03;;;;;;;;;;5079849;27;20230;-78
2021/04/30 13:57:16;;;;;;;9.40;6.83;;;;;;;;;;5071818;28;20222;-78
2021/04/30 13:59:44;;;;;;;9.53;7.07;;;;;;;;;;5084476;28;20215;-89
2021/04/30 14:02:13;;;;;;;8.83;7.13;;;;;;;;;;5096506;28;20235;-84
2021/04/30 14:04:42;;;;;;;10.03;6.57;;;;;;;;;;5102724;28;20800;-77
2021/04/30 14:07:10;;;;;;;7.37;6.43;;;;;;;;;;5086844;28;20222;-82
2021/04/30 14:09:39;;;;;;;8.20;7.10;;;;;;;;;;5068301;28;20230;-77
2021/04/30 14:12:08;;;;;;;7.93;6.53;;;;;;;;;;5101722;28;20214;-78
2021/04/30 14:14:37;;;;;;;7.57;6.60;;;;;;;;;;5106629;28;20218;-83
2021/04/30 14:17:05;;;;;;;8.27;7.10;;;;;;;;;;5087673;28;20514;-78
2021/04/30 14:19:35;;;;;;;10.27;8.10;;;;;;;;;;5084756;28;20616;-77
2021/04/30 14:22:03;;;;;;;7.80;6.77;;;;;;;;;;5082806;28;20763;-79
2021/04/30 14:24:31;;;;;;;7.40;6.70;;;;;;;;;;5087321;28;20206;-82
2021/04/30 14:27:00;;;;;;;7.53;5.97;;;;;;;;;;5086322;28;20230;-79
2021/04/30 14:29:29;;;;;;;7.10;6.00;;;;;;;;;;5065211;28;20222;-79
2021/04/30 14:31:56;;;;;;;6.20;5.57;;;;;;;;;;5068111;28;20710;-80
2021/04/30 14:34:24;;;;;;;6.50;5.87;;;;;;;;;;5087934;28;20221;-82
2021/04/30 14:36:51;;;;;;;6.90;5.93;;;;;;;;;;5081102;28;20255;-79
2021/04/30 14:39:19;;;;;;;4.67;4.20;;;;;;;;;;5071594;28;20210;-79
2021/04/30 14:41:46;;;;;;;3.73;3.33;;;;;;;;;;5065416;28;20249;-79
2021/04/30 14:44:15;;;;;;;3.63;3.33;;;;;;;;;;5081246;28;20735;-80
2021/04/30 14:46:43;;;;;;;3.63;3.07;;;;;;;;;;5082276;28;20234;-79
2021/04/30 14:49:10;;;;;;;3.70;3.30;;;;;;;;;;5081039;28;20217;-79
2021/04/30 14:51:37;;;;;;;3.70;3.40;;;;;;;;;;5068686;28;20227;-79
2021/04/30 14:54:06;;;;;;;3.50;3.20;;;;;;;;;;5073098;28;20226;-80